Time;durP1;ratioP1;P1;durP2;ratioP2;P2;SDS_P1;SDS_P2;PMS_P1;PMS_P2;Temp;Humidity;BMP_temperature;BMP_pressure;BME280_temperature;BME280_humidity;BME280_pressure;Samples;Min_cycle;Max_cycle;Signal;HPM_P1;HPM_P2
2022/06/13 00:00:28;;;;;;;13.00;2.90;;;18.60;83.30;;;;;;5030443;28;20029;-84
2022/06/13 00:02:54;;;;;;;13.25;3.28;;;18.60;83.40;;;;;;5030284;28;20095;-84
2022/06/13 00:05:20;;;;;;;16.02;3.03;;;18.60;83.40;;;;;;5030145;28;20029;-85
2022/06/13 00:07:46;;;;;;;10.68;2.88;;;18.60;83.30;;;;;;5030355;28;20051;-85
2022/06/13 00:10:13;;;;;;;8.48;2.63;;;18.60;83.30;;;;;;5030611;28;20022;-84
2022/06/13 00:12:42;;;;;;;13.50;2.60;;;18.60;83.60;;;;;;5030882;28;20022;-86
2022/06/13 00:15:11;;;;;;;8.75;2.80;;;18.60;83.70;;;;;;5030304;28;20280;-86
2022/06/13 00:17:37;;;;;;;11.82;2.60;;;18.60;83.80;;;;;;5030201;28;20045;-85
2022/06/13 00:20:05;;;;;;;9.38;2.70;;;18.60;83.90;;;;;;5030210;28;20096;-85
2022/06/13 00:22:30;;;;;;;15.88;2.88;;;18.60;83.70;;;;;;5029882;28;20056;-86
2022/06/13 00:24:57;;;;;;;9.52;2.80;;;18.60;83.50;;;;;;5029854;28;20034;-84
2022/06/13 00:27:26;;;;;;;7.82;2.58;;;18.60;83.50;;;;;;5030849;28;20316;-85
2022/06/13 00:29:51;;;;;;;12.57;3.70;;;18.60;84.00;;;;;;5028653;28;20072;-85
2022/06/13 00:32:18;;;;;;;10.35;2.83;;;18.50;84.00;;;;;;5029980;28;20399;-84
2022/06/13 00:34:46;;;;;;;13.73;2.58;;;18.50;84.10;;;;;;5030121;28;20215;-85
2022/06/13 00:37:11;;;;;;;14.63;3.83;;;18.50;84.20;;;;;;5029907;28;20467;-85
2022/06/13 00:39:37;;;;;;;12.40;3.35;;;18.50;84.40;;;;;;5029439;28;20030;-84
2022/06/13 00:42:04;;;;;;;15.30;3.15;;;18.40;84.50;;;;;;5029971;28;20039;-84
2022/06/13 00:44:33;;;;;;;14.45;3.40;;;18.40;84.70;;;;;;5029826;28;20471;-84
2022/06/13 00:46:59;;;;;;;12.02;2.90;;;18.40;84.30;;;;;;5029809;28;20036;-84
2022/06/13 00:49:38;;;;;;;16.90;3.22;;;18.40;84.70;;;;;;5029840;28;20486;-84
2022/06/13 00:52:16;;;;;;;16.02;3.47;;;18.40;84.80;;;;;;5029647;28;20067;-84
2022/06/13 00:54:45;;;;;;;14.88;2.88;;;18.40;84.60;;;;;;5030667;28;20386;-84
2022/06/13 00:57:22;;;;;;;12.30;2.85;;;18.40;85.00;;;;;;5029845;28;20220;-85
2022/06/13 00:59:54;;;;;;;12.95;3.40;;;18.30;85.20;;;;;;5030044;28;20082;-83
2022/06/13 01:02:21;;;;;;;8.60;2.75;;;18.30;85.30;;;;;;5029980;28;20124;-86
2022/06/13 01:04:51;;;;;;;11.45;2.95;;;18.20;85.40;;;;;;5033649;28;20038;-86
2022/06/13 01:07:18;;;;;;;10.82;2.58;;;18.20;85.50;;;;;;5033424;28;20163;-84
2022/06/13 01:12:29;;;;;;;16.27;2.67;;;18.10;85.80;;;;;;5033584;28;20124;-84
2022/06/13 01:15:05;;;;;;;16.25;4.07;;;18.10;85.90;;;;;;5032136;28;20026;-84
2022/06/13 01:17:44;;;;;;;7.72;2.67;;;18.10;86.20;;;;;;5033252;28;20042;-85
2022/06/13 01:20:34;;;;;;;11.07;2.70;;;18.10;86.60;;;;;;5033326;28;20061;-85
2022/06/13 01:23:22;;;;;;;11.32;3.13;;;18.00;86.60;;;;;;5032029;28;20037;-83
2022/06/13 01:26:09;;;;;;;17.92;3.25;;;17.90;87.10;;;;;;5032686;28;20035;-84
2022/06/13 01:29:07;;;;;;;15.27;3.08;;;17.90;87.20;;;;;;5032878;28;20026;-84
2022/06/13 01:31:43;;;;;;;6.85;2.58;;;17.80;87.60;;;;;;5033116;28;20060;-85
2022/06/13 01:34:44;;;;;;;15.50;4.10;;;17.70;88.10;;;;;;5033161;28;20027;-84
2022/06/13 01:37:42;;;;;;;10.85;2.72;;;17.60;88.50;;;;;;5028323;28;20045;-85
2022/06/13 01:40:41;;;;;;;14.10;2.83;;;17.50;89.20;;;;;;5013444;28;20117;-85
2022/06/13 01:43:16;;;;;;;10.00;2.83;;;17.40;89.70;;;;;;5033053;28;20476;-85
2022/06/13 01:45:53;;;;;;;10.02;2.90;;;17.30;89.80;;;;;;5033293;28;20040;-87
2022/06/13 01:49:00;;;;;;;8.98;2.88;;;17.30;90.10;;;;;;5033158;28;20060;-86
2022/06/13 01:51:28;;;;;;;7.07;2.90;;;17.20;90.30;;;;;;5032714;28;20041;-85
2022/06/13 01:54:20;;;;;;;13.40;3.42;;;17.10;90.60;;;;;;5032267;28;20099;-84
2022/06/13 01:57:06;;;;;;;9.85;2.92;;;17.00;90.80;;;;;;5031329;28;20034;-85
2022/06/13 02:00:05;;;;;;;12.00;3.20;;;16.90;90.90;;;;;;5031981;28;20038;-86
2022/06/13 02:02:44;;;;;;;11.32;3.70;;;16.80;91.30;;;;;;5030641;28;20025;-84
2022/06/13 02:05:22;;;;;;;12.85;3.08;;;16.90;91.20;;;;;;5032124;28;20033;-84
2022/06/13 02:07:50;;;;;;;;;;;16.80;91.40;;;;;;5032615;28;20163;-85
2022/06/13 02:10:19;;;;;;;;;;;16.80;91.30;;;;;;5032800;28;20335;-86
2022/06/13 02:12:51;;;;;;;12.32;2.78;;;16.80;91.40;;;;;;5032900;28;19905;-87
2022/06/13 02:15:23;;;;;;;10.50;2.97;;;16.70;91.80;;;;;;5032347;28;20444;-86
2022/06/13 02:17:57;;;;;;;10.35;3.05;;;16.70;91.40;;;;;;5031789;28;20048;-85
2022/06/13 02:20:34;;;;;;;13.52;2.90;;;16.70;91.50;;;;;;5031615;28;20467;-85
2022/06/13 02:23:10;;;;;;;9.45;2.78;;;16.60;91.70;;;;;;5031711;28;20034;-85
2022/06/13 02:25:51;;;;;;;10.82;2.80;;;16.50;91.90;;;;;;5032013;28;20056;-85
2022/06/13 02:28:26;;;;;;;17.38;4.18;;;16.60;91.60;;;;;;5031613;28;20037;-85
2022/06/13 02:31:09;;;;;;;10.07;2.67;;;16.60;91.90;;;;;;5032595;28;20057;-85
2022/06/13 02:33:40;;;;;;;15.25;3.22;;;16.60;92.10;;;;;;5032079;28;20459;-83
2022/06/13 02:36:30;;;;;;;10.68;2.85;;;16.60;92.10;;;;;;5033844;28;20029;-86
2022/06/13 02:39:08;;;;;;;10.43;3.10;;;16.50;92.00;;;;;;5030411;28;20110;-85
2022/06/13 02:41:46;;;;;;;11.18;2.60;;;16.50;92.20;;;;;;5032486;28;20036;-83
2022/06/13 02:44:19;;;;;;;18.80;3.50;;;16.50;92.30;;;;;;5030749;28;20393;-82
2022/06/13 02:46:50;;;;;;;10.80;3.00;;;16.50;92.30;;;;;;5031479;28;20060;-83
2022/06/13 02:49:25;;;;;;;14.07;3.20;;;16.60;92.30;;;;;;5031000;28;20445;-82
2022/06/13 02:51:50;;;;;;;11.38;3.75;;;16.60;92.30;;;;;;5033688;28;20477;-82
2022/06/13 02:54:37;;;;;;;11.40;2.92;;;16.60;92.40;;;;;;5033618;28;20140;-83
2022/06/13 02:57:24;;;;;;;11.57;3.42;;;16.50;92.50;;;;;;5034330;28;20022;-85
2022/06/13 02:59:51;;;;;;;10.55;2.85;;;16.50;92.60;;;;;;5032785;28;20068;-82
2022/06/13 03:02:26;;;;;;;8.23;2.70;;;16.40;92.70;;;;;;5033281;28;20360;-83
2022/06/13 03:05:00;;;;;;;11.35;3.40;;;16.40;92.80;;;;;;5033581;28;20061;-84
2022/06/13 03:07:35;;;;;;;14.07;3.47;;;16.30;92.90;;;;;;5031574;28;20033;-84
2022/06/13 03:10:18;;;;;;;9.60;2.72;;;16.30;93.00;;;;;;5031898;28;20030;-84
2022/06/13 03:12:56;;;;;;;10.88;3.22;;;16.30;93.10;;;;;;5033272;28;20029;-86
2022/06/13 03:15:24;;;;;;;;;;;16.20;93.20;;;;;;5033973;28;20037;-84
2022/06/13 03:17:56;;;;;;;15.50;3.88;;;16.30;93.20;;;;;;5037246;28;19927;-85
2022/06/13 03:20:34;;;;;;;15.68;3.25;;;16.20;93.20;;;;;;5037062;28;20025;-85
2022/06/13 03:23:14;;;;;;;13.43;3.65;;;16.30;93.20;;;;;;5035237;28;20064;-84
2022/06/13 03:25:43;;;;;;;12.07;3.10;;;16.30;93.20;;;;;;5032918;28;20394;-86
2022/06/13 03:28:20;;;;;;;12.45;3.30;;;16.30;93.30;;;;;;5035981;28;20100;-85
2022/06/13 03:30:52;;;;;;;12.70;3.72;;;16.30;93.30;;;;;;5034743;28;20188;-86
2022/06/13 03:33:42;;;;;;;13.40;3.40;;;16.30;93.30;;;;;;5032897;28;20033;-87
2022/06/13 03:36:14;;;;;;;18.83;3.70;;;16.20;93.40;;;;;;5037437;28;20029;-86
2022/06/13 03:38:52;;;;;;;16.58;3.42;;;16.20;93.40;;;;;;5034102;28;20462;-84
2022/06/13 03:41:22;;;;;;;14.68;3.20;;;16.30;93.50;;;;;;5038887;28;20099;-83
2022/06/13 03:44:01;;;;;;;12.73;3.45;;;16.30;93.40;;;;;;5036066;28;20025;-84
2022/06/13 03:46:41;;;;;;;13.63;3.15;;;16.30;93.60;;;;;;5036807;28;20091;-83
2022/06/13 03:49:16;;;;;;;12.65;3.13;;;16.40;93.50;;;;;;5037626;28;20061;-83
2022/06/13 03:51:45;;;;;;;11.63;3.00;;;16.40;93.50;;;;;;5039755;28;20025;-84
2022/06/13 03:54:15;;;;;;;12.85;3.25;;;16.40;93.60;;;;;;5035270;28;20044;-83
2022/06/13 03:56:49;;;;;;;15.32;3.97;;;16.50;93.40;;;;;;5031060;28;20113;-82
2022/06/13 03:59:29;;;;;;;22.95;4.35;;;16.50;93.20;;;;;;5030127;28;20391;-82
2022/06/13 04:02:02;;;;;;;15.82;3.00;;;16.60;93.30;;;;;;5030439;28;20112;-82
2022/06/13 04:04:38;;;;;;;12.18;3.50;;;16.50;93.30;;;;;;5030505;28;20045;-82
2022/06/13 04:07:05;;;;;;;17.38;4.53;;;16.70;93.10;;;;;;5034885;28;20087;-83
2022/06/13 04:09:35;;;;;;;15.07;3.33;;;16.70;93.00;;;;;;5032008;28;20035;-82
2022/06/13 04:12:28;;;;;;;11.30;3.22;;;16.70;92.90;;;;;;5030133;28;20037;-83
2022/06/13 04:15:15;;;;;;;17.90;4.20;;;16.70;92.70;;;;;;5029485;28;20045;-83
2022/06/13 04:18:18;;;;;;;20.08;3.50;;;16.70;92.80;;;;;;5030065;28;20108;-83
2022/06/13 04:21:08;;;;;;;16.38;3.17;;;16.70;92.70;;;;;;5030366;28;20061;-83
2022/06/13 04:23:48;;;;;;;7.40;3.08;;;16.70;92.60;;;;;;5030035;28;20118;-82
2022/06/13 04:26:22;;;;;;;38.40;5.53;;;16.60;92.80;;;;;;5030212;28;20029;-85
2022/06/13 04:29:09;;;;;;;20.70;4.00;;;16.60;92.80;;;;;;5030036;28;20459;-82
2022/06/13 04:31:36;;;;;;;12.75;3.08;;;16.70;92.70;;;;;;5029713;28;20042;-84
2022/06/13 04:34:17;;;;;;;15.40;3.17;;;16.70;92.80;;;;;;5029318;28;20029;-86
2022/06/13 04:36:45;;;;;;;9.85;3.10;;;16.70;92.70;;;;;;5030935;28;20057;-83
2022/06/13 04:39:14;;;;;;;13.32;3.47;;;16.50;92.70;;;;;;5032760;28;20406;-84
2022/06/13 04:41:43;;;;;;;12.18;4.25;;;16.60;92.70;;;;;;5033778;28;20033;-84
2022/06/13 04:44:16;;;;;;;14.27;3.58;;;16.70;92.50;;;;;;5032851;28;20026;-83
2022/06/13 04:46:43;;;;;;;10.68;3.45;;;16.80;92.50;;;;;;5033908;28;20030;-84
2022/06/13 04:49:31;;;;;;;14.32;3.90;;;16.80;92.50;;;;;;5033665;28;20021;-85
2022/06/13 04:52:01;;;;;;;21.35;4.55;;;16.80;92.40;;;;;;5032728;28;20112;-85
2022/06/13 04:54:59;;;;;;;12.52;3.83;;;16.80;92.30;;;;;;5034316;28;20048;-84
2022/06/13 04:57:25;;;;;;;;;;;16.70;92.10;;;;;;5034671;28;20120;-83
2022/06/13 04:59:51;;;;;;;14.82;3.60;;;16.80;92.20;;;;;;5034047;28;19909;-85
2022/06/13 05:02:22;;;;;;;14.05;3.75;;;16.80;92.00;;;;;;5032692;28;20419;-84
2022/06/13 05:04:48;;;;;;;15.07;3.53;;;16.70;92.00;;;;;;5033797;28;20320;-82
2022/06/13 05:07:18;;;;;;;14.05;3.45;;;16.80;92.00;;;;;;5033664;28;20061;-84
2022/06/13 05:09:57;;;;;;;10.55;3.20;;;16.80;91.90;;;;;;5034464;28;20498;-84
2022/06/13 05:12:31;;;;;;;12.85;3.45;;;16.90;92.00;;;;;;5033603;28;20033;-85
2022/06/13 05:15:18;;;;;;;8.82;3.35;;;17.00;91.60;;;;;;5033378;28;20525;-88
2022/06/13 05:18:10;;;;;;;19.02;4.55;;;17.00;91.50;;;;;;5032695;28;20064;-84
2022/06/13 05:20:41;;;;;;;13.77;3.28;;;17.00;91.30;;;;;;5032987;28;20498;-83
2022/06/13 05:23:20;;;;;;;17.85;3.67;;;16.80;91.40;;;;;;5033195;28;20463;-84
2022/06/13 05:25:53;;;;;;;15.82;4.43;;;16.90;91.50;;;;;;5032979;28;20426;-84
2022/06/13 05:28:22;;;;;;;17.92;3.55;;;17.00;91.20;;;;;;5033274;28;20349;-85
2022/06/13 05:30:52;;;;;;;28.77;4.05;;;17.00;91.20;;;;;;5033789;28;20073;-86
2022/06/13 05:33:25;;;;;;;13.93;3.75;;;17.20;91.20;;;;;;5033495;28;20026;-85
2022/06/13 05:35:54;;;;;;;10.55;2.88;;;17.30;91.00;;;;;;5033560;28;20402;-86
2022/06/13 05:38:26;;;;;;;20.30;4.18;;;17.40;90.90;;;;;;5032436;28;20140;-86
2022/06/13 05:40:51;;;;;;;17.65;3.63;;;17.20;90.80;;;;;;5033469;28;20505;-87
2022/06/13 05:43:19;;;;;;;15.32;3.13;;;17.30;91.00;;;;;;5033708;28;20044;-86
2022/06/13 05:45:45;;;;;;;15.85;3.47;;;17.40;90.90;;;;;;5033284;28;20100;-84
2022/06/13 05:48:13;;;;;;;13.55;3.17;;;17.30;91.10;;;;;;5033193;28;20033;-85
2022/06/13 05:50:39;;;;;;;15.77;3.22;;;17.40;91.00;;;;;;5031025;28;20371;-80
2022/06/13 05:53:05;;;;;;;17.98;5.57;;;17.60;90.80;;;;;;5032101;28;20116;-80
2022/06/13 05:55:31;;;;;;;14.10;3.67;;;17.60;90.80;;;;;;5031779;28;20513;-82
2022/06/13 05:57:57;;;;;;;13.48;3.45;;;17.70;90.70;;;;;;5032755;28;20041;-81
2022/06/13 06:00:26;;;;;;;13.63;3.03;;;17.60;90.50;;;;;;5032798;28;20017;-80
2022/06/13 06:02:52;;;;;;;20.23;3.53;;;17.60;90.60;;;;;;5031999;28;20399;-82
2022/06/13 06:05:18;;;;;;;12.05;2.97;;;17.70;90.70;;;;;;5032104;28;20348;-80
2022/06/13 06:07:44;;;;;;;14.07;3.78;;;17.70;90.60;;;;;;5032042;28;20367;-80
2022/06/13 06:10:19;;;;;;;13.20;2.60;;;17.80;90.50;;;;;;5031734;28;20022;-78
2022/06/13 06:12:45;;;;;;;13.52;3.00;;;17.80;90.40;;;;;;5032315;28;20022;-78
2022/06/13 06:15:11;;;;;;;11.07;3.15;;;17.80;90.30;;;;;;5031926;28;20037;-80
2022/06/13 06:17:37;;;;;;;12.10;3.42;;;17.80;90.40;;;;;;5030454;28;20038;-78
2022/06/13 06:20:06;;;;;;;11.73;3.58;;;17.80;90.50;;;;;;5032060;28;20030;-81
2022/06/13 06:22:32;;;;;;;15.07;3.55;;;17.80;90.60;;;;;;5030801;28;20093;-82
2022/06/13 06:24:58;;;;;;;10.90;2.78;;;17.70;90.80;;;;;;5031800;28;20100;-77
2022/06/13 06:27:23;;;;;;;12.98;3.30;;;17.80;90.90;;;;;;5032264;28;20022;-80
2022/06/13 06:29:49;;;;;;;11.48;3.33;;;17.80;90.80;;;;;;5032235;28;20605;-87
2022/06/13 06:32:15;;;;;;;23.45;3.72;;;18.00;91.10;;;;;;5031580;28;20048;-81
2022/06/13 06:34:41;;;;;;;13.57;3.20;;;17.90;90.70;;;;;;5031723;28;20399;-85
2022/06/13 06:37:07;;;;;;;19.63;3.58;;;17.90;90.70;;;;;;5031239;28;20033;-78
2022/06/13 06:39:33;;;;;;;12.70;2.97;;;17.90;90.70;;;;;;5031636;28;20022;-79
2022/06/13 06:41:59;;;;;;;12.95;3.22;;;17.80;90.90;;;;;;5031468;28;20026;-79
2022/06/13 06:44:24;;;;;;;16.63;3.83;;;17.90;90.80;;;;;;5031447;28;20137;-77
2022/06/13 06:46:50;;;;;;;20.00;5.30;;;18.00;90.80;;;;;;5030383;28;20107;-80
2022/06/13 06:49:16;;;;;;;14.20;3.20;;;18.10;90.70;;;;;;5031713;28;20021;-81
2022/06/13 06:51:44;;;;;;;10.60;3.67;;;18.10;90.50;;;;;;5031652;28;20209;-77
2022/06/13 06:59:55;;;;;;;15.25;2.92;;;18.20;90.10;;;;;;5034167;28;20095;-87
2022/06/13 07:02:26;;;;;;;14.20;3.05;;;18.20;90.10;;;;;;5031090;28;20113;-80
2022/06/13 07:04:59;;;;;;;12.55;3.25;;;18.20;90.20;;;;;;5031007;28;20108;-79
2022/06/13 07:07:25;;;;;;;14.30;3.75;;;18.20;90.20;;;;;;5031147;28;20481;-78
2022/06/13 07:09:52;;;;;;;15.85;3.28;;;18.30;90.10;;;;;;5030100;28;20416;-80
2022/06/13 07:12:18;;;;;;;12.48;2.97;;;18.40;89.50;;;;;;5030998;28;20171;-82
2022/06/13 07:14:44;;;;;;;9.60;2.90;;;18.60;89.50;;;;;;5029790;28;20040;-78
2022/06/13 07:17:10;;;;;;;17.50;2.58;;;18.70;88.50;;;;;;5029243;28;20324;-78
2022/06/13 07:19:37;;;;;;;15.52;3.10;;;18.70;87.70;;;;;;5031036;28;20071;-77
2022/06/13 07:22:05;;;;;;;11.48;2.42;;;18.60;87.80;;;;;;5030858;28;20024;-79
2022/06/13 07:24:31;;;;;;;12.02;3.20;;;18.70;87.70;;;;;;5030975;28;20363;-80
2022/06/13 07:26:58;;;;;;;10.32;2.38;;;18.70;87.50;;;;;;5030582;28;20451;-79
2022/06/13 07:29:24;;;;;;;10.43;2.72;;;18.80;87.20;;;;;;5030843;28;20033;-78
2022/06/13 07:31:54;;;;;;;13.85;2.72;;;18.80;87.40;;;;;;5029888;28;20042;-81
2022/06/13 07:34:23;;;;;;;15.13;2.95;;;18.80;87.70;;;;;;5029448;28;20029;-79
2022/06/13 07:36:50;;;;;;;12.95;3.28;;;18.90;86.70;;;;;;5030382;28;20014;-77
2022/06/13 07:39:17;;;;;;;9.95;2.67;;;18.80;86.30;;;;;;5030219;28;20626;-81
2022/06/13 07:41:43;;;;;;;8.27;3.03;;;18.80;86.70;;;;;;5030616;28;20029;-83
2022/06/13 07:44:33;;;;;;;10.95;3.08;;;18.90;86.40;;;;;;5029295;28;20044;-80
2022/06/13 07:46:59;;;;;;;15.50;2.90;;;19.10;85.10;;;;;;5029337;28;20026;-82
2022/06/13 07:49:25;;;;;;;9.40;2.95;;;19.30;85.30;;;;;;5030185;28;20025;-79
2022/06/13 07:51:51;;;;;;;12.07;2.80;;;19.40;85.10;;;;;;5030760;28;20045;-78
2022/06/13 07:54:17;;;;;;;17.50;2.78;;;19.50;85.20;;;;;;5029035;28;20456;-78
2022/06/13 07:56:44;;;;;;;11.85;3.03;;;19.80;83.70;;;;;;5029184;28;20061;-81
2022/06/13 07:59:17;;;;;;;10.20;2.55;;;19.60;83.20;;;;;;5029161;28;20087;-80
2022/06/13 08:01:44;;;;;;;8.52;2.50;;;19.70;81.60;;;;;;5030248;28;20029;-78
2022/06/13 08:04:11;;;;;;;8.85;2.40;;;19.80;80.40;;;;;;5028862;28;20021;-78
2022/06/13 08:06:42;;;;;;;11.00;2.67;;;19.90;80.00;;;;;;5030131;28;20501;-78
2022/06/13 08:09:09;;;;;;;11.10;2.40;;;20.00;79.50;;;;;;5029812;28;20371;-77
2022/06/13 08:11:39;;;;;;;15.80;2.93;;;20.10;79.60;;;;;;5029704;28;20025;-75
2022/06/13 08:14:08;;;;;;;13.77;2.70;;;20.30;78.90;;;;;;5033649;28;20026;-76
2022/06/13 08:16:34;;;;;;;11.05;2.53;;;20.40;78.20;;;;;;5033676;28;20456;-74
2022/06/13 08:19:03;;;;;;;8.95;2.47;;;20.70;79.10;;;;;;5033825;28;20044;-75
2022/06/13 08:21:29;;;;;;;10.02;2.60;;;21.40;79.80;;;;;;5033201;28;20021;-73
2022/06/13 08:23:55;;;;;;;16.17;2.50;;;21.40;76.60;;;;;;5034049;28;20029;-80
2022/06/13 08:26:20;;;;;;;8.85;2.35;;;21.30;76.40;;;;;;5033860;28;20068;-79
2022/06/13 08:28:46;;;;;;;9.15;2.40;;;21.00;74.40;;;;;;5033762;28;20435;-78
2022/06/13 08:31:15;;;;;;;8.77;1.98;;;21.50;74.00;;;;;;5032585;28;20045;-79
2022/06/13 08:33:40;;;;;;;9.73;2.17;;;22.00;71.90;;;;;;5034237;28;20079;-74
2022/06/13 08:36:07;;;;;;;6.85;1.88;;;22.20;71.10;;;;;;5032236;28;20038;-77
2022/06/13 08:38:33;;;;;;;9.65;2.22;;;22.90;70.80;;;;;;5033555;28;20479;-73
2022/06/13 08:41:15;;;;;;;8.15;2.00;;;23.30;67.10;;;;;;5033549;28;20037;-82
2022/06/13 08:44:11;;;;;;;9.75;2.05;;;23.90;65.80;;;;;;5034053;28;20021;-84
2022/06/13 08:47:02;;;;;;;10.60;2.08;;;24.10;63.60;;;;;;5033411;28;20060;-75
2022/06/13 08:49:54;;;;;;;11.80;2.65;;;23.80;64.40;;;;;;5032647;28;20034;-77
2022/06/13 08:52:31;;;;;;;11.88;2.25;;;23.60;61.80;;;;;;5032510;28;20498;-77
2022/06/13 08:55:10;;;;;;;10.35;2.15;;;23.80;61.70;;;;;;5032409;28;20026;-76
2022/06/13 08:57:38;;;;;;;12.60;2.40;;;23.90;60.70;;;;;;5032492;28;20075;-77
2022/06/13 09:00:11;;;;;;;6.65;1.88;;;24.30;60.00;;;;;;5032275;28;20111;-86
2022/06/13 09:03:00;;;;;;;7.50;2.35;;;24.40;60.40;;;;;;5033199;28;20297;-76
2022/06/13 09:05:42;;;;;;;6.75;2.10;;;24.20;59.90;;;;;;5033132;28;20475;-78
2022/06/13 09:08:26;;;;;;;10.80;2.33;;;23.70;59.50;;;;;;5031831;28;20375;-77
2022/06/13 09:11:16;;;;;;;6.88;1.83;;;23.30;60.40;;;;;;5032761;28;20037;-78
2022/06/13 09:14:12;;;;;;;5.53;2.17;;;23.10;60.80;;;;;;5032853;28;20033;-78
2022/06/13 09:16:41;;;;;;;7.07;2.13;;;22.90;60.90;;;;;;5033028;28;20037;-78
2022/06/13 09:19:28;;;;;;;11.02;2.28;;;22.40;60.80;;;;;;5032680;28;20436;-78
2022/06/13 09:22:19;;;;;;;7.38;1.60;;;22.30;61.80;;;;;;5032882;28;20366;-79
2022/06/13 09:24:52;;;;;;;9.25;2.00;;;22.00;62.00;;;;;;5017360;28;20018;-81
2022/06/13 09:27:25;;;;;;;7.68;1.98;;;21.00;62.20;;;;;;5012079;28;20364;-79
2022/06/13 09:30:19;;;;;;;7.38;1.75;;;21.20;63.70;;;;;;5013050;28;20026;-80
2022/06/13 09:32:55;;;;;;;5.43;1.92;;;20.90;65.40;;;;;;5011445;28;20135;-77
2022/06/13 09:35:24;;;;;;;9.15;2.50;;;21.10;66.00;;;;;;5012609;28;20049;-76
2022/06/13 09:38:03;;;;;;;6.65;2.40;;;21.00;66.10;;;;;;5013052;28;20029;-79
2022/06/13 09:40:46;;;;;;;9.40;2.03;;;20.90;66.20;;;;;;5012933;28;20029;-78
2022/06/13 09:43:33;;;;;;;14.05;2.33;;;21.30;66.20;;;;;;5013193;28;20081;-79
2022/06/13 09:46:16;;;;;;;10.88;2.22;;;21.20;64.30;;;;;;5013840;28;20025;-81
2022/06/13 09:48:51;;;;;;;10.55;1.80;;;21.00;64.00;;;;;;5013733;28;20113;-79
2022/06/13 09:51:54;;;;;;;14.88;2.97;;;20.90;67.00;;;;;;5013170;28;20121;-85
2022/06/13 09:54:29;;;;;;;5.95;1.77;;;19.90;75.40;;;;;;5012551;28;20042;-80
2022/06/13 09:57:01;;;;;;;4.50;1.70;;;18.80;76.80;;;;;;5012886;28;20037;-75
2022/06/13 09:59:40;;;;;;;5.53;1.80;;;18.50;76.40;;;;;;5012774;28;20046;-78
2022/06/13 10:02:31;;;;;;;6.00;1.10;;;17.90;77.10;;;;;;5011680;28;20034;-79
2022/06/13 10:05:18;;;;;;;5.57;1.25;;;17.90;78.40;;;;;;5011492;28;20045;-79
2022/06/13 10:07:59;;;;;;;4.97;1.20;;;18.20;74.40;;;;;;5012747;28;20080;-77
2022/06/13 10:10:48;;;;;;;3.20;1.08;;;18.00;77.10;;;;;;5012571;28;20026;-77
2022/06/13 10:13:26;;;;;;;5.80;1.40;;;18.20;76.60;;;;;;5012752;28;20042;-78
2022/06/13 10:16:01;;;;;;;4.88;1.30;;;18.30;77.40;;;;;;5014418;28;20018;-82
2022/06/13 10:18:42;;;;;;;3.88;1.40;;;18.40;78.50;;;;;;5014108;28;20413;-81
2022/06/13 10:21:27;;;;;;;4.28;1.88;;;18.40;79.70;;;;;;5013629;28;20023;-81
2022/06/13 10:24:11;;;;;;;8.18;2.28;;;18.60;81.80;;;;;;5015192;28;20094;-89
2022/06/13 10:26:56;;;;;;;7.18;2.13;;;19.00;84.30;;;;;;5016421;28;20053;-84
2022/06/13 10:29:38;;;;;;;4.65;1.88;;;19.30;83.00;;;;;;5012639;28;20037;-80
2022/06/13 10:32:23;;;;;;;7.35;2.20;;;19.20;77.80;;;;;;5012107;28;20045;-81
2022/06/13 10:35:05;;;;;;;3.67;1.98;;;19.50;80.50;;;;;;5014425;28;20026;-88
2022/06/13 10:38:06;;;;;;;4.25;1.70;;;19.90;82.10;;;;;;5014836;28;20097;-85
2022/06/13 10:40:32;;;;;;;11.27;2.10;;;19.90;80.00;;;;;;5016824;28;20148;-89
2022/06/13 10:42:59;;;;;;;5.75;1.25;;;20.10;79.30;;;;;;5017393;28;20022;-83
2022/06/13 10:45:26;;;;;;;;;;;19.90;77.30;;;;;;5013460;28;20045;-85
2022/06/13 10:48:03;;;;;;;8.10;1.60;;;20.10;78.60;;;;;;5013058;28;19939;-87
2022/06/13 10:50:48;;;;;;;11.43;2.40;;;20.10;80.80;;;;;;5013879;28;20038;-86
2022/06/13 10:53:26;;;;;;;16.73;2.35;;;19.90;83.60;;;;;;5012494;28;20065;-85
2022/06/13 10:55:55;;;;;;;10.75;2.13;;;19.00;84.30;;;;;;5015094;28;20034;-85
2022/06/13 10:58:27;;;;;;;6.20;1.73;;;18.90;88.10;;;;;;5012021;28;20037;-80
2022/06/13 11:01:21;;;;;;;7.32;1.92;;;18.80;86.50;;;;;;5012152;28;20022;-79
2022/06/13 11:04:01;;;;;;;7.65;2.22;;;18.80;89.10;;;;;;5012937;28;20042;-85
2022/06/13 11:06:48;;;;;;;11.52;2.08;;;19.20;91.40;;;;;;5012045;28;20298;-83
2022/06/13 11:09:30;;;;;;;11.65;2.10;;;19.30;90.20;;;;;;5010571;28;20065;-82
2022/06/13 11:12:00;;;;;;;10.60;1.83;;;19.50;90.20;;;;;;5012022;28;20109;-81
2022/06/13 11:22:37;;;;;;;5.80;2.13;;;19.70;88.60;;;;;;5012499;28;20087;-84
2022/06/13 11:23:03;;;;;;;12.00;3.38;;;19.80;86.50;;;;;;5011900;28;20100;-81
2022/06/13 11:25:35;;;;;;;14.63;4.10;;;19.90;88.60;;;;;;5010560;28;20032;-82
2022/06/13 11:28:03;;;;;;;9.88;3.80;;;20.10;83.90;;;;;;5011852;28;20105;-79
2022/06/13 11:30:36;;;;;;;13.10;3.33;;;20.20;83.30;;;;;;5010948;28;20039;-81
2022/06/13 11:33:23;;;;;;;7.70;2.63;;;19.60;85.20;;;;;;5010467;28;20705;-81
2022/06/13 11:35:54;;;;;;;6.07;1.90;;;19.30;88.10;;;;;;5011730;28;20057;-81
2022/06/13 11:38:32;;;;;;;5.15;2.00;;;18.70;89.90;;;;;;5010177;28;20476;-83
2022/06/13 11:41:19;;;;;;;7.50;2.20;;;18.80;90.30;;;;;;5009880;28;20048;-84
2022/06/13 11:44:04;;;;;;;11.35;2.42;;;18.30;91.40;;;;;;5011386;28;20128;-84
2022/06/13 11:46:51;;;;;;;8.25;2.55;;;18.60;91.90;;;;;;5010487;28;20036;-90
2022/06/13 11:49:17;;;;;;;7.60;1.93;;;18.60;91.50;;;;;;5012923;28;20087;-86
2022/06/13 11:51:51;;;;;;;6.57;2.05;;;18.20;91.50;;;;;;5012819;28;20113;-86
2022/06/13 11:54:26;;;;;;;6.05;1.40;;;18.50;92.20;;;;;;5012591;28;20034;-87
2022/06/13 11:57:18;;;;;;;3.72;1.20;;;18.70;92.40;;;;;;5011289;28;20103;-86
2022/06/13 12:00:02;;;;;;;3.55;1.20;;;18.60;92.30;;;;;;5011123;28;20057;-79
2022/06/13 12:02:48;;;;;;;9.95;4.50;;;18.80;92.50;;;;;;5010084;28;20038;-77
2022/06/13 12:05:20;;;;;;;4.68;1.60;;;19.00;93.00;;;;;;5010435;28;20057;-79
2022/06/13 12:08:03;;;;;;;6.57;1.50;;;19.20;91.40;;;;;;5009825;28;20106;-79
2022/06/13 12:10:33;;;;;;;6.25;1.20;;;19.30;91.10;;;;;;5011193;28;20026;-82
2022/06/13 12:12:59;;;;;;;6.80;1.00;;;19.30;91.00;;;;;;5010385;28;20028;-82
2022/06/13 12:15:40;;;;;;;3.80;1.27;;;19.40;90.40;;;;;;5010791;28;20014;-83
2022/06/13 12:18:15;;;;;;;5.78;1.15;;;19.50;90.00;;;;;;5009393;28;20049;-80
2022/06/13 12:21:03;;;;;;;4.47;1.70;;;19.40;89.60;;;;;;5010923;28;20026;-78
2022/06/13 12:23:31;;;;;;;;;;;19.40;89.40;;;;;;5010163;28;20054;-80
2022/06/13 12:26:03;;;;;;;;;;;19.40;87.30;;;;;;5011107;28;19909;-78
2022/06/13 12:28:46;;;;;;;2.95;0.95;;;19.50;88.30;;;;;;5010661;28;19909;-80
2022/06/13 12:31:23;;;;;;;4.10;1.08;;;19.80;87.70;;;;;;5010464;28;20133;-78
2022/06/13 12:34:00;;;;;;;9.18;1.50;;;20.00;86.10;;;;;;5010148;28;20018;-82
2022/06/13 12:36:53;;;;;;;4.10;1.30;;;19.80;85.20;;;;;;5009547;28;20034;-84
2022/06/13 12:39:50;;;;;;;2.33;1.10;;;19.80;85.20;;;;;;5010437;28;20045;-76
2022/06/13 12:42:39;;;;;;;3.78;0.90;;;19.70;83.40;;;;;;5009396;28;20025;-80
2022/06/13 12:45:37;;;;;;;4.90;0.98;;;19.60;83.30;;;;;;5009498;28;20524;-79
2022/06/13 12:48:27;;;;;;;3.08;1.02;;;19.80;83.20;;;;;;5010411;28;20041;-78
2022/06/13 12:51:19;;;;;;;3.58;1.20;;;20.00;82.80;;;;;;5010502;28;20061;-81
2022/06/13 12:54:06;;;;;;;1.63;0.90;;;20.10;81.50;;;;;;5009693;28;20479;-79
2022/06/13 12:57:02;;;;;;;2.63;0.82;;;20.00;79.40;;;;;;5010945;28;20045;-79
2022/06/13 12:59:52;;;;;;;3.15;1.00;;;19.80;77.70;;;;;;5012730;28;20136;-79
2022/06/13 13:02:23;;;;;;;4.63;2.17;;;19.80;77.60;;;;;;5014436;28;20472;-80
2022/06/13 13:05:29;;;;;;;3.40;1.00;;;19.90;77.80;;;;;;5014280;28;20030;-78
2022/06/13 13:08:03;;;;;;;7.70;3.07;;;19.90;78.30;;;;;;5012994;28;20040;-80
2022/06/13 13:10:35;;;;;;;1.65;0.63;;;20.10;78.60;;;;;;5014263;28;20022;-79
2022/06/13 13:13:13;;;;;;;4.25;0.90;;;20.30;77.10;;;;;;5014081;28;20045;-81
2022/06/13 13:16:01;;;;;;;3.13;0.75;;;20.40;73.80;;;;;;5014746;28;20080;-88
2022/06/13 13:18:26;;;;;;;;;;;20.10;72.00;;;;;;5014959;28;20034;-87
2022/06/13 13:21:03;;;;;;;1.02;0.52;;;20.10;72.20;;;;;;5013192;28;19920;-85
2022/06/13 13:23:46;;;;;;;1.80;1.00;;;20.20;72.50;;;;;;5013342;28;20094;-83
2022/06/13 13:26:37;;;;;;;4.00;0.88;;;20.40;70.60;;;;;;5013779;28;20431;-83
2022/06/13 13:29:34;;;;;;;7.03;0.70;;;20.60;70.40;;;;;;5013417;28;20478;-85
2022/06/13 13:32:37;;;;;;;4.55;1.48;;;20.50;68.00;;;;;;5013529;28;20103;-83
2022/06/13 13:35:12;;;;;;;2.10;0.60;;;20.30;67.90;;;;;;5013648;28;20137;-81
2022/06/13 13:37:44;;;;;;;2.47;0.85;;;20.30;67.90;;;;;;5013406;28;20483;-81
2022/06/13 13:40:32;;;;;;;3.92;0.80;;;20.20;67.30;;;;;;5014991;28;20033;-83